sensor_id;sensor_type;location;lat;lon;timestamp;pressure;altitude;pressure_sealevel;temperature;humidity
76257;BME280;65074;50.436;8.672;2024-01-07T00:01:13;99083.44;;;2.93;100.00
76257;BME280;65074;50.436;8.672;2024-01-07T00:03:42;99089.75;;;2.92;100.00
76257;BME280;65074;50.436;8.672;2024-01-07T00:06:08;99088.53;;;2.88;100.00
76257;BME280;65074;50.436;8.672;2024-01-07T00:08:35;99086.91;;;2.87;100.00
76257;BME280;65074;50.436;8.672;2024-01-07T00:11:00;99085.66;;;2.90;100.00
76257;BME280;65074;50.436;8.672;2024-01-07T00:13:25;99086.06;;;2.87;100.00
76257;BME280;65074;50.436;8.672;2024-01-07T00:15:51;99085.88;;;2.88;100.00
76257;BME280;65074;50.436;8.672;2024-01-07T00:18:17;99102.44;;;2.90;100.00
76257;BME280;65074;50.436;8.672;2024-01-07T00:20:43;99088.31;;;2.90;100.00
76257;BME280;65074;50.436;8.672;2024-01-07T00:23:08;99100.78;;;2.89;100.00
76257;BME280;65074;50.436;8.672;2024-01-07T00:25:33;99093.63;;;2.90;100.00
76257;BME280;65074;50.436;8.672;2024-01-07T00:27:59;99103.44;;;2.89;100.00
76257;BME280;65074;50.436;8.672;2024-01-07T00:30:24;99104.47;;;2.88;100.00
76257;BME280;65074;50.436;8.672;2024-01-07T00:32:49;99110.41;;;2.90;100.00
76257;BME280;65074;50.436;8.672;2024-01-07T00:35:16;99105.50;;;2.87;100.00
76257;BME280;65074;50.436;8.672;2024-01-07T00:37:42;99103.44;;;2.89;100.00
76257;BME280;65074;50.436;8.672;2024-01-07T00:40:07;99112.22;;;2.90;100.00
76257;BME280;65074;50.436;8.672;2024-01-07T00:42:33;99110.41;;;2.90;100.00
76257;BME280;65074;50.436;8.672;2024-01-07T00:44:58;99114.50;;;2.86;100.00
76257;BME280;65074;50.436;8.672;2024-01-07T00:47:24;99117.78;;;2.88;100.00
76257;BME280;65074;50.436;8.672;2024-01-07T00:49:49;99120.59;;;2.87;100.00
76257;BME280;65074;50.436;8.672;2024-01-07T00:52:15;99123.25;;;2.87;100.00
76257;BME280;65074;50.436;8.672;2024-01-07T00:54:40;99118.38;;;2.84;100.00
76257;BME280;65074;50.436;8.672;2024-01-07T00:57:06;99121.66;;;2.86;100.00
76257;BME280;65074;50.436;8.672;2024-01-07T00:59:31;99120.00;;;2.85;100.00
76257;BME280;65074;50.436;8.672;2024-01-07T01:01:56;99122.66;;;2.85;100.00
76257;BME280;65074;50.436;8.672;2024-01-07T01:04:22;99122.28;;;2.81;100.00
76257;BME280;65074;50.436;8.672;2024-01-07T01:06:47;99125.34;;;2.78;100.00
76257;BME280;65074;50.436;8.672;2024-01-07T01:09:13;99132.25;;;2.79;100.00
76257;BME280;65074;50.436;8.672;2024-01-07T01:11:38;99136.78;;;2.79;100.00
76257;BME280;65074;50.436;8.672;2024-01-07T01:14:03;99136.16;;;2.77;100.00
76257;BME280;65074;50.436;8.672;2024-01-07T01:16:29;99140.66;;;2.76;100.00
76257;BME280;65074;50.436;8.672;2024-01-07T01:18:54;99141.28;;;2.78;100.00
76257;BME280;65074;50.436;8.672;2024-01-07T01:21:19;99143.94;;;2.78;100.00
76257;BME280;65074;50.436;8.672;2024-01-07T01:23:46;99149.41;;;2.77;100.00
76257;BME280;65074;50.436;8.672;2024-01-07T01:26:11;99138.81;;;2.77;100.00
76257;BME280;65074;50.436;8.672;2024-01-07T01:28:37;99149.41;;;2.77;100.00
76257;BME280;65074;50.436;8.672;2024-01-07T01:31:02;99148.63;;;2.76;100.00
76257;BME280;65074;50.436;8.672;2024-01-07T01:33:27;99151.47;;;2.75;100.00
76257;BME280;65074;50.436;8.672;2024-01-07T01:35:54;99148.63;;;2.76;100.00
76257;BME280;65074;50.436;8.672;2024-01-07T01:38:19;99156.19;;;2.73;100.00
76257;BME280;65074;50.436;8.672;2024-01-07T01:40:51;99148.22;;;2.73;100.00
76257;BME280;65074;50.436;8.672;2024-01-07T01:43:27;99151.47;;;2.75;100.00
76257;BME280;65074;50.436;8.672;2024-01-07T01:45:54;99158.22;;;2.71;100.00
76257;BME280;65074;50.436;8.672;2024-01-07T01:48:20;99160.47;;;2.74;100.00
76257;BME280;65074;50.436;8.672;2024-01-07T01:50:47;99164.53;;;2.70;100.00
76257;BME280;65074;50.436;8.672;2024-01-07T01:53:13;99164.53;;;2.70;100.00
76257;BME280;65074;50.436;8.672;2024-01-07T01:55:38;99152.09;;;2.70;100.00
76257;BME280;65074;50.436;8.672;2024-01-07T01:58:04;99162.94;;;2.69;100.00
76257;BME280;65074;50.436;8.672;2024-01-07T02:00:30;99167.41;;;2.68;100.00
76257;BME280;65074;50.436;8.672;2024-01-07T02:02:56;99170.06;;;2.68;100.00
76257;BME280;65074;50.436;8.672;2024-01-07T02:05:22;99163.94;;;2.68;100.00
76257;BME280;65074;50.436;8.672;2024-01-07T02:07:48;99167.22;;;2.63;100.00
76257;BME280;65074;50.436;8.672;2024-01-07T02:10:14;99166.19;;;2.64;100.00
76257;BME280;65074;50.436;8.672;2024-01-07T02:12:39;99163.72;;;2.62;100.00
76257;BME280;65074;50.436;8.672;2024-01-07T02:15:05;99170.25;;;2.60;100.00
76257;BME280;65074;50.436;8.672;2024-01-07T02:17:31;99172.91;;;2.60;100.00
76257;BME280;65074;50.436;8.672;2024-01-07T02:19:56;99171.47;;;2.57;100.00
76257;BME280;65074;50.436;8.672;2024-01-07T02:22:22;99170.25;;;2.60;100.00
76257;BME280;65074;50.436;8.672;2024-01-07T02:24:47;99175.78;;;2.58;100.00
76257;BME280;65074;50.436;8.672;2024-01-07T02:27:12;99177.63;;;2.58;100.00
76257;BME280;65074;50.436;8.672;2024-01-07T02:29:38;99178.44;;;2.58;100.00
76257;BME280;65074;50.436;8.672;2024-01-07T02:32:03;99183.53;;;2.60;100.00
76257;BME280;65074;50.436;8.672;2024-01-07T02:34:29;99175.19;;;2.56;100.00
76257;BME280;65074;50.436;8.672;2024-01-07T02:36:55;99181.50;;;2.55;100.00
76257;BME280;65074;50.436;8.672;2024-01-07T02:39:20;99177.41;;;2.53;100.00
76257;BME280;65074;50.436;8.672;2024-01-07T02:41:46;99179.63;;;2.49;100.00
76257;BME280;65074;50.436;8.672;2024-01-07T02:44:11;99177.41;;;2.46;100.00
76257;BME280;65074;50.436;8.672;2024-01-07T02:46:37;99176.16;;;2.42;100.00
76257;BME280;65074;50.436;8.672;2024-01-07T02:49:02;99184.72;;;2.38;100.00
76257;BME280;65074;50.436;8.672;2024-01-07T02:51:27;99182.28;;;2.36;100.00
76257;BME280;65074;50.436;8.672;2024-01-07T02:53:53;99183.72;;;2.39;100.00
76257;BME280;65074;50.436;8.672;2024-01-07T02:56:18;99182.91;;;2.38;100.00
76257;BME280;65074;50.436;8.672;2024-01-07T02:58:43;99185.78;;;2.43;100.00
76257;BME280;65074;50.436;8.672;2024-01-07T03:01:09;99172.72;;;2.42;100.00
76257;BME280;65074;50.436;8.672;2024-01-07T03:03:35;99178.41;;;2.45;100.00
76257;BME280;65074;50.436;8.672;2024-01-07T03:06:00;99177.19;;;2.48;100.00
76257;BME280;65074;50.436;8.672;2024-01-07T03:08:25;99187.59;;;2.49;100.00
76257;BME280;65074;50.436;8.672;2024-01-07T03:10:51;99181.06;;;2.52;100.00
76257;BME280;65074;50.436;8.672;2024-01-07T03:13:16;99182.50;;;2.54;100.00
76257;BME280;65074;50.436;8.672;2024-01-07T03:15:41;99184.97;;;2.56;100.00
76257;BME280;65074;50.436;8.672;2024-01-07T03:18:07;99183.75;;;2.58;100.00
76257;BME280;65074;50.436;8.672;2024-01-07T03:20:33;99188.03;;;2.59;100.00
76257;BME280;65074;50.436;8.672;2024-01-07T03:23:00;99189.47;;;2.62;100.00
76257;BME280;65074;50.436;8.672;2024-01-07T03:25:25;99185.78;;;2.63;100.00
76257;BME280;65074;50.436;8.672;2024-01-07T03:27:51;99181.91;;;2.66;100.00
76257;BME280;65074;50.436;8.672;2024-01-07T03:30:16;99194.81;;;2.69;100.00
76257;BME280;65074;50.436;8.672;2024-01-07T03:32:41;99191.72;;;2.72;100.00
76257;BME280;65074;50.436;8.672;2024-01-07T03:35:07;99197.03;;;2.72;100.00
76257;BME280;65074;50.436;8.672;2024-01-07T03:37:34;99194.19;;;2.73;100.00
76257;BME280;65074;50.436;8.672;2024-01-07T03:39:59;99196.44;;;2.76;100.00
76257;BME280;65074;50.436;8.672;2024-01-07T03:42:25;99190.09;;;2.77;100.00
76257;BME280;65074;50.436;8.672;2024-01-07T03:44:50;99196.22;;;2.78;100.00
76257;BME280;65074;50.436;8.672;2024-01-07T03:47:16;99195.81;;;2.81;100.00
76257;BME280;65074;50.436;8.672;2024-01-07T03:49:41;99194.78;;;2.82;100.00
76257;BME280;65074;50.436;8.672;2024-01-07T03:52:07;99194.00;;;2.81;100.00
76257;BME280;65074;50.436;8.672;2024-01-07T03:54:33;99202.56;;;2.83;100.00
76257;BME280;65074;50.436;8.672;2024-01-07T03:56:58;99200.31;;;2.87;100.00
76257;BME280;65074;50.436;8.672;2024-01-07T03:59:23;99203.19;;;2.85;100.00
76257;BME280;65074;50.436;8.672;2024-01-07T04:01:52;99205.84;;;2.85;100.00
76257;BME280;65074;50.436;8.672;2024-01-07T04:04:18;99209.09;;;2.87;100.00
76257;BME280;65074;50.436;8.672;2024-01-07T04:06:43;99207.88;;;2.90;100.00
76257;BME280;65074;50.436;8.672;2024-01-07T04:09:08;99210.13;;;2.93;100.00
76257;BME280;65074;50.436;8.672;2024-01-07T04:11:42;99206.25;;;2.89;100.00
76257;BME280;65074;50.436;8.672;2024-01-07T04:14:08;99214.63;;;2.92;100.00
76257;BME280;65074;50.436;8.672;2024-01-07T04:16:33;99215.03;;;2.89;100.00
76257;BME280;65074;50.436;8.672;2024-01-07T04:18:58;99226.06;;;2.93;100.00
76257;BME280;65074;50.436;8.672;2024-01-07T04:21:24;99214.44;;;2.94;100.00
76257;BME280;65074;50.436;8.672;2024-01-07T04:23:49;99217.06;;;2.87;100.00
76257;BME280;65074;50.436;8.672;2024-01-07T04:26:14;99214.81;;;2.84;100.00
76257;BME280;65074;50.436;8.672;2024-01-07T04:28:43;99224.44;;;2.85;100.00
76257;BME280;65074;50.436;8.672;2024-01-07T04:31:09;99227.69;;;2.81;100.00
76257;BME280;65074;50.436;8.672;2024-01-07T04:33:34;99229.31;;;2.82;100.00
76257;BME280;65074;50.436;8.672;2024-01-07T04:35:59;99235.44;;;2.82;100.00
76257;BME280;65074;50.436;8.672;2024-01-07T04:38:26;99233.00;;;2.81;100.00
76257;BME280;65074;50.436;8.672;2024-01-07T04:40:52;99245.69;;;2.79;100.00
76257;BME280;65074;50.436;8.672;2024-01-07T04:43:18;99250.34;;;2.77;100.00
76257;BME280;65074;50.436;8.672;2024-01-07T04:45:44;99244.25;;;2.76;100.00
76257;BME280;65074;50.436;8.672;2024-01-07T04:48:09;99250.16;;;2.78;100.00
76257;BME280;65074;50.436;8.672;2024-01-07T04:50:35;99252.44;;;2.81;100.00
76257;BME280;65074;50.436;8.672;2024-01-07T04:53:00;99256.69;;;2.82;100.00
76257;BME280;65074;50.436;8.672;2024-01-07T04:55:26;99258.34;;;2.83;100.00
76257;BME280;65074;50.436;8.672;2024-01-07T04:57:52;99261.19;;;2.82;100.00
76257;BME280;65074;50.436;8.672;2024-01-07T05:00:17;99257.53;;;2.83;100.00
76257;BME280;65074;50.436;8.672;2024-01-07T05:02:43;99268.75;;;2.85;100.00
76257;BME280;65074;50.436;8.672;2024-01-07T05:05:08;99267.53;;;2.87;100.00
76257;BME280;65074;50.436;8.672;2024-01-07T05:07:34;99267.94;;;2.84;100.00
76257;BME280;65074;50.436;8.672;2024-01-07T05:10:00;99272.47;;;2.84;100.00
76257;BME280;65074;50.436;8.672;2024-01-07T05:12:25;99279.38;;;2.85;100.00
76257;BME280;65074;50.436;8.672;2024-01-07T05:14:51;99283.88;;;2.84;100.00
76257;BME280;65074;50.436;8.672;2024-01-07T05:17:17;99279.38;;;2.85;100.00
76257;BME280;65074;50.436;8.672;2024-01-07T05:19:42;99289.84;;;2.86;100.00
76257;BME280;65074;50.436;8.672;2024-01-07T05:22:08;99293.50;;;2.85;100.00
76257;BME280;65074;50.436;8.672;2024-01-07T05:24:33;99300.66;;;2.85;100.00
76257;BME280;65074;50.436;8.672;2024-01-07T05:26:58;99297.16;;;2.84;100.00
76257;BME280;65074;50.436;8.672;2024-01-07T05:29:23;99306.38;;;2.88;100.00
76257;BME280;65074;50.436;8.672;2024-01-07T05:31:49;99317.41;;;2.92;100.00
76257;BME280;65074;50.436;8.672;2024-01-07T05:34:14;99314.34;;;2.88;100.00
76257;BME280;65074;50.436;8.672;2024-01-07T05:36:40;99317.19;;;2.87;100.00
76257;BME280;65074;50.436;8.672;2024-01-07T05:39:05;99320.69;;;2.87;100.00
76257;BME280;65074;50.436;8.672;2024-01-07T05:41:32;99333.13;;;2.87;100.00
76257;BME280;65074;50.436;8.672;2024-01-07T05:43:57;99334.16;;;2.86;100.00
76257;BME280;65074;50.436;8.672;2024-01-07T05:46:23;99336.22;;;2.84;100.00
76257;BME280;65074;50.436;8.672;2024-01-07T05:48:48;99336.41;;;2.82;100.00
76257;BME280;65074;50.436;8.672;2024-01-07T05:51:14;99345.63;;;2.86;100.00
76257;BME280;65074;50.436;8.672;2024-01-07T05:53:41;99345.19;;;2.76;100.00
76257;BME280;65074;50.436;8.672;2024-01-07T05:56:06;99352.09;;;2.71;100.00
76257;BME280;65074;50.436;8.672;2024-01-07T05:58:32;99363.50;;;2.64;100.00
76257;BME280;65074;50.436;8.672;2024-01-07T06:00:57;99366.97;;;2.58;100.00
76257;BME280;65074;50.436;8.672;2024-01-07T06:03:23;99369.81;;;2.57;100.00
76257;BME280;65074;50.436;8.672;2024-01-07T06:05:48;99382.25;;;2.50;100.00
76257;BME280;65074;50.436;8.672;2024-01-07T06:08:14;99383.03;;;2.44;100.00
76257;BME280;65074;50.436;8.672;2024-01-07T06:10:40;99380.78;;;2.41;100.00
76257;BME280;65074;50.436;8.672;2024-01-07T06:13:06;99387.91;;;2.40;100.00
76257;BME280;65074;50.436;8.672;2024-01-07T06:15:31;99386.25;;;2.33;100.00
76257;BME280;65074;50.436;8.672;2024-01-07T06:17:57;99390.53;;;2.34;100.00
76257;BME280;65074;50.436;8.672;2024-01-07T06:20:22;99384.41;;;2.33;100.00
76257;BME280;65074;50.436;8.672;2024-01-07T06:22:48;99395.84;;;2.34;100.00
76257;BME280;65074;50.436;8.672;2024-01-07T06:25:13;99401.75;;;2.29;100.00
76257;BME280;65074;50.436;8.672;2024-01-07T06:27:39;99414.00;;;2.30;100.00
76257;BME280;65074;50.436;8.672;2024-01-07T06:30:05;99414.84;;;2.37;100.00
76257;BME280;65074;50.436;8.672;2024-01-07T06:32:31;99412.59;;;2.34;100.00
76257;BME280;65074;50.436;8.672;2024-01-07T06:34:58;99417.25;;;2.32;100.00
76257;BME280;65074;50.436;8.672;2024-01-07T06:37:23;99420.13;;;2.31;100.00
76257;BME280;65074;50.436;8.672;2024-01-07T06:39:48;99420.75;;;2.33;100.00
76257;BME280;65074;50.436;8.672;2024-01-07T06:42:14;99425.44;;;2.31;100.00
76257;BME280;65074;50.436;8.672;2024-01-07T06:44:39;99423.59;;;2.31;100.00
76257;BME280;65074;50.436;8.672;2024-01-07T06:47:04;99425.88;;;2.34;100.00
76257;BME280;65074;50.436;8.672;2024-01-07T06:49:30;99429.75;;;2.32;100.00
76257;BME280;65074;50.436;8.672;2024-01-07T06:51:55;99441.16;;;2.32;100.00
76257;BME280;65074;50.436;8.672;2024-01-07T06:54:20;99431.94;;;2.28;100.00
76257;BME280;65074;50.436;8.672;2024-01-07T06:56:46;99432.53;;;2.24;100.00
76257;BME280;65074;50.436;8.672;2024-01-07T06:59:11;99437.84;;;2.24;100.00
76257;BME280;65074;50.436;8.672;2024-01-07T07:01:37;99435.22;;;2.30;100.00
76257;BME280;65074;50.436;8.672;2024-01-07T07:04:03;99447.34;;;2.39;100.00
76257;BME280;65074;50.436;8.672;2024-01-07T07:06:29;99450.63;;;2.41;100.00
76257;BME280;65074;50.436;8.672;2024-01-07T07:08:54;99452.22;;;2.36;100.00
76257;BME280;65074;50.436;8.672;2024-01-07T07:11:19;99457.88;;;2.26;100.00
76257;BME280;65074;50.436;8.672;2024-01-07T07:13:45;99459.94;;;2.31;100.00
76257;BME280;65074;50.436;8.672;2024-01-07T07:16:10;99467.66;;;2.26;100.00
76257;BME280;65074;50.436;8.672;2024-01-07T07:18:35;99474.19;;;2.23;100.00
76257;BME280;65074;50.436;8.672;2024-01-07T07:21:01;99470.91;;;2.21;100.00
76257;BME280;65074;50.436;8.672;2024-01-07T07:23:26;99469.00;;;2.15;100.00
76257;BME280;65074;50.436;8.672;2024-01-07T07:25:51;99484.50;;;2.12;100.00
76257;BME280;65074;50.436;8.672;2024-01-07T07:28:17;99490.56;;;2.06;100.00
76257;BME280;65074;50.436;8.672;2024-01-07T07:30:42;99490.81;;;2.11;100.00
76257;BME280;65074;50.436;8.672;2024-01-07T07:33:08;99493.81;;;2.01;100.00
76257;BME280;65074;50.436;8.672;2024-01-07T07:35:33;99498.03;;;1.95;100.00
76257;BME280;65074;50.436;8.672;2024-01-07T07:37:58;99507.66;;;1.96;100.00
76257;BME280;65074;50.436;8.672;2024-01-07T07:40:24;99510.09;;;1.98;100.00
76257;BME280;65074;50.436;8.672;2024-01-07T07:42:49;99508.22;;;1.92;100.00
76257;BME280;65074;50.436;8.672;2024-01-07T07:45:14;99513.53;;;1.92;100.00
76257;BME280;65074;50.436;8.672;2024-01-07T07:47:40;99523.31;;;1.91;100.00
76257;BME280;65074;50.436;8.672;2024-01-07T07:50:10;99523.88;;;1.87;100.00
76257;BME280;65074;50.436;8.672;2024-01-07T07:52:36;99529.75;;;1.82;100.00
76257;BME280;65074;50.436;8.672;2024-01-07T07:55:02;99536.91;;;1.82;100.00
76257;BME280;65074;50.436;8.672;2024-01-07T07:57:27;99526.66;;;1.79;100.00
76257;BME280;65074;50.436;8.672;2024-01-07T07:59:54;99531.75;;;1.80;100.00
76257;BME280;65074;50.436;8.672;2024-01-07T08:02:19;99534.25;;;1.82;100.00
76257;BME280;65074;50.436;8.672;2024-01-07T08:04:46;99542.19;;;1.82;100.00
76257;BME280;65074;50.436;8.672;2024-01-07T08:07:12;99546.88;;;1.80;100.00
76257;BME280;65074;50.436;8.672;2024-01-07T08:09:37;99540.75;;;1.79;100.00
76257;BME280;65074;50.436;8.672;2024-01-07T08:12:04;99544.41;;;1.78;100.00
76257;BME280;65074;50.436;8.672;2024-01-07T08:14:30;99556.03;;;1.77;100.00
76257;BME280;65074;50.436;8.672;2024-01-07T08:16:56;99550.06;;;1.75;100.00
76257;BME280;65074;50.436;8.672;2024-01-07T08:19:21;99552.97;;;1.80;100.00
76257;BME280;65074;50.436;8.672;2024-01-07T08:21:46;99557.47;;;1.80;100.00
76257;BME280;65074;50.436;8.672;2024-01-07T08:24:12;99555.56;;;1.74;100.00
76257;BME280;65074;50.436;8.672;2024-01-07T08:26:37;99559.41;;;1.71;100.00
76257;BME280;65074;50.436;8.672;2024-01-07T08:29:03;99570.84;;;1.72;100.00
76257;BME280;65074;50.436;8.672;2024-01-07T08:31:28;99569.03;;;1.72;100.00
76257;BME280;65074;50.436;8.672;2024-01-07T08:33:54;99569.28;;;1.77;100.00
76257;BME280;65074;50.436;8.672;2024-01-07T08:36:19;99571.13;;;1.77;100.00
76257;BME280;65074;50.436;8.672;2024-01-07T08:38:44;99580.84;;;1.70;100.00
76257;BME280;65074;50.436;8.672;2024-01-07T08:41:09;99574.34;;;1.72;100.00
76257;BME280;65074;50.436;8.672;2024-01-07T08:43:35;99574.69;;;1.69;100.00
76257;BME280;65074;50.436;8.672;2024-01-07T08:46:00;99588.31;;;1.66;100.00
76257;BME280;65074;50.436;8.672;2024-01-07T08:48:26;99585.63;;;1.81;100.00
76257;BME280;65074;50.436;8.672;2024-01-07T08:50:51;99588.28;;;1.81;100.00
76257;BME280;65074;50.436;8.672;2024-01-07T08:53:17;99604.56;;;1.78;100.00
76257;BME280;65074;50.436;8.672;2024-01-07T08:55:43;99604.13;;;1.74;100.00
76257;BME280;65074;50.436;8.672;2024-01-07T08:58:09;99605.69;;;1.69;100.00
76257;BME280;65074;50.436;8.672;2024-01-07T09:00:34;99603.59;;;1.64;100.00
76257;BME280;65074;50.436;8.672;2024-01-07T09:02:59;99606.25;;;1.64;100.00
76257;BME280;65074;50.436;8.672;2024-01-07T09:05:25;99621.19;;;1.65;100.00
76257;BME280;65074;50.436;8.672;2024-01-07T09:07:50;99618.31;;;1.67;100.00
76257;BME280;65074;50.436;8.672;2024-01-07T09:10:16;99613.84;;;1.67;100.00
76257;BME280;65074;50.436;8.672;2024-01-07T09:12:41;99620.41;;;1.71;100.00
76257;BME280;65074;50.436;8.672;2024-01-07T09:15:07;99625.63;;;1.79;100.00
76257;BME280;65074;50.436;8.672;2024-01-07T09:17:36;99634.72;;;1.91;100.00
76257;BME280;65074;50.436;8.672;2024-01-07T09:20:04;99639.41;;;1.89;100.00
76257;BME280;65074;50.436;8.672;2024-01-07T09:22:32;99633.84;;;1.84;100.00
76257;BME280;65074;50.436;8.672;2024-01-07T09:24:58;99645.19;;;1.78;100.00
76257;BME280;65074;50.436;8.672;2024-01-07T09:27:23;99642.88;;;1.75;100.00
76257;BME280;65074;50.436;8.672;2024-01-07T09:29:48;99653.88;;;1.72;100.00
76257;BME280;65074;50.436;8.672;2024-01-07T09:32:13;99644.19;;;1.79;100.00
76257;BME280;65074;50.436;8.672;2024-01-07T09:34:39;99657.34;;;1.73;100.00
76257;BME280;65074;50.436;8.672;2024-01-07T09:37:04;99660.91;;;1.80;100.00
76257;BME280;65074;50.436;8.672;2024-01-07T09:39:29;99662.13;;;1.77;100.00
76257;BME280;65074;50.436;8.672;2024-01-07T09:41:55;99668.22;;;1.78;100.00
76257;BME280;65074;50.436;8.672;2024-01-07T09:44:20;99670.88;;;1.78;100.00
76257;BME280;65074;50.436;8.672;2024-01-07T09:46:46;99674.53;;;1.77;100.00
76257;BME280;65074;50.436;8.672;2024-01-07T09:49:16;99675.00;;;1.66;100.00
76257;BME280;65074;50.436;8.672;2024-01-07T09:51:45;99673.28;;;1.58;100.00
76257;BME280;65074;50.436;8.672;2024-01-07T09:54:13;99668.63;;;1.60;100.00
76257;BME280;65074;50.436;8.672;2024-01-07T09:56:49;99676.75;;;1.59;100.00
76257;BME280;65074;50.436;8.672;2024-01-07T09:59:16;99676.31;;;1.55;100.00
76257;BME280;65074;50.436;8.672;2024-01-07T10:01:43;99683.44;;;1.55;100.00
76257;BME280;65074;50.436;8.672;2024-01-07T10:04:09;99686.72;;;1.57;100.00
76257;BME280;65074;50.436;8.672;2024-01-07T10:06:35;99680.03;;;1.61;100.00
76257;BME280;65074;50.436;8.672;2024-01-07T10:09:00;99677.38;;;1.61;100.00
76257;BME280;65074;50.436;8.672;2024-01-07T10:11:25;99678.41;;;1.60;100.00
76257;BME280;65074;50.436;8.672;2024-01-07T10:13:50;99684.63;;;1.67;100.00
76257;BME280;65074;50.436;8.672;2024-01-07T10:16:19;99686.81;;;1.63;100.00
76257;BME280;65074;50.436;8.672;2024-01-07T10:18:44;99678.69;;;1.65;100.00
76257;BME280;65074;50.436;8.672;2024-01-07T10:21:10;99689.56;;;1.70;100.00
76257;BME280;65074;50.436;8.672;2024-01-07T10:23:35;99689.28;;;1.65;100.00
76257;BME280;65074;50.436;8.672;2024-01-07T10:26:00;99695.03;;;1.54;100.00
76257;BME280;65074;50.436;8.672;2024-01-07T10:28:27;99697.69;;;1.39;100.00
76257;BME280;65074;50.436;8.672;2024-01-07T10:30:53;99692.84;;;1.43;100.00
76257;BME280;65074;50.436;8.672;2024-01-07T10:33:18;99691.19;;;1.42;100.00
76257;BME280;65074;50.436;8.672;2024-01-07T10:35:51;99693.28;;;1.46;100.00
76257;BME280;65074;50.436;8.672;2024-01-07T10:38:18;99695.16;;;1.46;100.00
76257;BME280;65074;50.436;8.672;2024-01-07T10:40:43;99696.59;;;1.48;100.00
76257;BME280;65074;50.436;8.672;2024-01-07T10:43:10;99695.94;;;1.46;100.00
76257;BME280;65074;50.436;8.672;2024-01-07T10:45:37;99694.13;;;1.47;100.00
76257;BME280;65074;50.436;8.672;2024-01-07T10:48:04;99706.94;;;1.43;100.00
76257;BME280;65074;50.436;8.672;2024-01-07T10:50:33;99720.44;;;1.48;100.00
76257;BME280;65074;50.436;8.672;2024-01-07T10:53:04;99715.69;;;1.44;100.00
76257;BME280;65074;50.436;8.672;2024-01-07T10:55:34;99713.25;;;1.42;100.00
76257;BME280;65074;50.436;8.672;2024-01-07T10:58:03;99716.88;;;1.41;100.00
76257;BME280;65074;50.436;8.672;2024-01-07T11:00:30;99717.63;;;1.35;100.00
76257;BME280;65074;50.436;8.672;2024-01-07T11:03:09;99712.75;;;1.39;100.00
76257;BME280;65074;50.436;8.672;2024-01-07T11:05:44;99721.09;;;1.21;100.00
76257;BME280;65074;50.436;8.672;2024-01-07T11:08:26;99718.44;;;1.21;100.00
76257;BME280;65074;50.436;8.672;2024-01-07T11:10:58;99713.94;;;1.21;100.00
76257;BME280;65074;50.436;8.672;2024-01-07T11:13:35;99718.50;;;1.13;100.00
76257;BME280;65074;50.436;8.672;2024-01-07T11:16:02;99710.97;;;0.87;100.00
76257;BME280;65074;50.436;8.672;2024-01-07T11:18:28;99706.97;;;0.91;100.00
76257;BME280;65074;50.436;8.672;2024-01-07T11:21:02;99722.91;;;0.83;100.00
76257;BME280;65074;50.436;8.672;2024-01-07T11:26:01;99719.06;;;0.71;100.00
76257;BME280;65074;50.436;8.672;2024-01-07T11:31:08;99716.50;;;0.78;100.00
76257;BME280;65074;50.436;8.672;2024-01-07T11:33:37;99721.59;;;0.79;100.00
76257;BME280;65074;50.436;8.672;2024-01-07T11:36:04;99716.16;;;0.81;100.00
76257;BME280;65074;50.436;8.672;2024-01-07T11:38:30;99711.09;;;0.71;100.00
76257;BME280;65074;50.436;8.672;2024-01-07T11:40:56;99711.47;;;0.68;100.00
76257;BME280;65074;50.436;8.672;2024-01-07T11:43:22;99720.53;;;0.74;100.00
76257;BME280;65074;50.436;8.672;2024-01-07T11:45:49;99729.09;;;0.76;100.00
76257;BME280;65074;50.436;8.672;2024-01-07T11:48:15;99725.22;;;0.86;100.00
76257;BME280;65074;50.436;8.672;2024-01-07T11:50:41;99728.78;;;0.93;100.00
76257;BME280;65074;50.436;8.672;2024-01-07T11:53:07;99727.63;;;0.96;100.00
76257;BME280;65074;50.436;8.672;2024-01-07T11:55:33;99723.03;;;1.04;100.00
76257;BME280;65074;50.436;8.672;2024-01-07T11:58:03;99722.22;;;1.04;100.00
76257;BME280;65074;50.436;8.672;2024-01-07T12:00:35;99725.41;;;0.99;100.00
76257;BME280;65074;50.436;8.672;2024-01-07T12:03:00;99733.19;;;1.01;100.00
76257;BME280;65074;50.436;8.672;2024-01-07T12:05:29;99734.00;;;1.01;100.00
76257;BME280;65074;50.436;8.672;2024-01-07T12:08:00;99745.78;;;0.99;100.00
76257;BME280;65074;50.436;8.672;2024-01-07T12:10:26;99740.97;;;1.02;100.00
76257;BME280;65074;50.436;8.672;2024-01-07T12:12:52;99739.47;;;1.00;100.00
76257;BME280;65074;50.436;8.672;2024-01-07T12:15:17;99743.97;;;0.77;100.00
76257;BME280;65074;50.436;8.672;2024-01-07T12:17:55;99743.03;;;0.70;100.00
76257;BME280;65074;50.436;8.672;2024-01-07T12:20:21;99746.50;;;0.70;100.00
76257;BME280;65074;50.436;8.672;2024-01-07T12:22:46;99749.44;;;0.75;100.00
76257;BME280;65074;50.436;8.672;2024-01-07T12:25:12;99745.72;;;0.84;100.00
76257;BME280;65074;50.436;8.672;2024-01-07T12:27:40;99746.91;;;0.82;100.00
76257;BME280;65074;50.436;8.672;2024-01-07T12:30:06;99757.06;;;0.78;100.00
76257;BME280;65074;50.436;8.672;2024-01-07T12:32:32;99763.75;;;0.89;100.00
76257;BME280;65074;50.436;8.672;2024-01-07T12:34:58;99762.88;;;0.96;100.00
76257;BME280;65074;50.436;8.672;2024-01-07T12:37:26;99756.13;;;0.71;100.00
76257;BME280;65074;50.436;8.672;2024-01-07T12:39:52;99753.63;;;0.70;100.00
76257;BME280;65074;50.436;8.672;2024-01-07T12:42:18;99765.88;;;0.71;100.00
76257;BME280;65074;50.436;8.672;2024-01-07T12:44:45;99764.28;;;0.61;100.00
76257;BME280;65074;50.436;8.672;2024-01-07T12:47:10;99760.69;;;0.54;100.00
76257;BME280;65074;50.436;8.672;2024-01-07T12:49:36;99761.69;;;0.53;100.00
76257;BME280;65074;50.436;8.672;2024-01-07T12:52:01;99762.34;;;0.55;100.00
76257;BME280;65074;50.436;8.672;2024-01-07T12:54:26;99772.09;;;0.55;100.00
76257;BME280;65074;50.436;8.672;2024-01-07T12:56:52;99770.88;;;0.65;100.00
76257;BME280;65074;50.436;8.672;2024-01-07T12:59:17;99780.69;;;0.57;100.00